FW3636 Weather Reports


Display with metric or nautical units.
time (UTC)temp
F
wind
direction
speed
MPH
gust
MPH
rain 1hr
in
rain 24hr
in
rain mn
in
humidity
%
barometer
mb
20210616012004 85 9 3.0 8.0 0.00 0.00 0.00 11 1041.7
20210616011504 85 11 5.0 11.0 0.00 0.00 0.00 11 1041.8
20210616011004 85 6 7.0 13.0 0.00 0.00 0.00 11 1041.8
20210616010504 85 7 7.0 13.0 0.00 0.00 0.00 11 1041.8
20210616005504 86 16 9.0 17.0 0.00 0.00 0.00 11 1041.9
20210616005004 86 25 11.0 27.0 0.00 0.00 0.00 11 1041.7
20210616004503 87 27 15.0 32.0 0.00 0.00 0.00 11 1041.4
20210616004004 86 21 15.0 32.0 0.00 0.00 0.00 11 1041.5
20210616003004 89 11 6.0 25.0 0.00 0.00 0.00 12 1041.2
20210616002004 90 66 6.0 12.0 0.00 0.00 0.00 12 1040.6
20210616001503 90 81 7.0 12.0 0.00 0.00 0.00 12 1040.7
20210616001005 89 62 6.0 10.0 0.00 0.00 0.00 12 1040.8
20210616000004 89 76 5.0 9.0 0.00 0.00 0.00 12 1040.9
20210615234503 89 58 8.0 15.0 0.00 0.00 0.00 12 1040.9
20210615233504 89 70 15.0 26.0 0.00 0.00 0.00 12 1041.1
20210615233004 90 48 16.0 26.0 0.00 0.00 0.00 12 1040.8
20210615232004 93 34 12.0 27.0 0.00 0.00 0.00 11 1040.8
20210615231004 98 322 8.0 15.0 0.00 0.00 0.00 12 1041.0
20210615230503 99 24 6.0 12.0 0.00 0.00 0.00 11 1040.9
20210615230005 99 31 5.0 9.0 0.00 0.00 0.00 11 1040.9
20210615225504 98 23 6.0 15.0 0.00 0.00 0.00 12 1040.9
20210615224504 99 2 4.0 9.0 0.00 0.00 0.00 11 1040.9
20210615223503 98 44 5.0 10.0 0.00 0.00 0.00 12 1040.9
20210615223005 99 82 5.0 10.0 0.00 0.00 0.00 11 1041.1
20210615221504 100 17 3.0 9.0 0.00 0.00 0.00 11 1041.2
20210615221004 99 20 4.0 9.0 0.00 0.00 0.00 11 1041.2
20210615215503 97 28 4.0 9.0 0.00 0.00 0.00 12 1041.6
20210615213504 97 64 6.0 11.0 0.00 0.00 0.00 13 1041.5
20210615213005 97 98 6.0 14.0 0.00 0.00 0.00 13 1041.7
20210615212503 98 130 5.0 14.0 0.00 0.00 0.00 12 1041.5
20210615212005 97 155 5.0 10.0 0.00 0.00 0.00 12 1041.7
20210615211504 98 80 3.0 7.0 0.00 0.00 0.00 12 1041.5
20210615210004 96 8 6.0 14.0 0.00 0.00 0.00 13 1041.8
20210615205004 96 79 6.0 11.0 0.00 0.00 0.00 13 1041.8
20210615204503 96 345 4.0 11.0 0.00 0.00 0.00 13 1041.8
20210615203503 96 128 3.0 8.0 0.00 0.00 0.00 13 1042.1
20210615203004 96 140 4.0 10.0 0.00 0.00 0.00 13 1042.1
20210615202504 94 147 5.0 10.0 0.00 0.00 0.00 11 1042.2
20210615202004 94 149 7.0 15.0 0.00 0.00 0.00 11 1042.1
20210615201503 94 155 7.0 15.0 0.00 0.00 0.00 11 1042.3
20210615201004 95 172 5.0 10.0 0.00 0.00 0.00 11 1042.4
20210615200004 95 125 5.0 12.0 0.00 0.00 0.00 13 1042.5
20210615195503 95 74 5.0 11.0 0.00 0.00 0.00 11 1042.3
20210615195004 94 88 7.0 13.0 0.00 0.00 0.00 11 1042.6
20210615194504 94 107 6.0 13.0 0.00 0.00 0.00 11 1042.8
20210615194004 94 162 4.0 10.0 0.00 0.00 0.00 11 1042.8
20210615193503 93 143 6.0 14.0 0.00 0.00 0.00 11 1042.7
20210615192005 92 156 6.0 12.0 0.00 0.00 0.00 11 1043.3
20210615191503 92 157 7.0 20.0 0.00 0.00 0.00 11 1043.1
20210615191005 92 170 8.0 20.0 0.00 0.00 0.00 11 1043.2
20210615190503 91 170 7.0 13.0 0.00 0.00 0.00 11 1043.3
20210615185503 91 164 9.0 14.0 0.00 0.00 0.00 11 1043.5
20210615185004 91 157 8.0 15.0 0.00 0.00 0.00 11 1043.4
20210615184504 91 162 7.0 15.0 0.00 0.00 0.00 11 1043.4
20210615183504 91 147 7.0 15.0 0.00 0.00 0.00 11 1043.7
20210615182503 90 144 7.0 13.0 0.00 0.00 0.00 11 1043.7
20210615182005 90 141 8.0 14.0 0.00 0.00 0.00 11 1043.9
20210615181503 90 146 7.0 14.0 0.00 0.00 0.00 11 1044.1
20210615181004 90 152 5.0 11.0 0.00 0.00 0.00 11 1043.8
20210615180504 90 153 5.0 10.0 0.00 0.00 0.00 13 1044.0
20210615180004 90 159 5.0 10.0 0.00 0.00 0.00 13 1043.9
20210615174503 89 86 4.0 9.0 0.00 0.00 0.00 13 1044.1
20210615173503 89 150 4.0 10.0 0.00 0.00 0.00 24 1044.2
20210615173004 88 155 5.0 11.0 0.00 0.00 0.00 25 1044.3
20210615171503 88 85 4.0 8.0 0.00 0.00 0.00 25 1044.3
20210615171004 86 90 4.0 8.0 0.00 0.00 0.00 21 1044.5
20210615170504 86 76 4.0 8.0 0.00 0.00 0.00 24 1044.4
20210615165503 86 355 3.0 8.0 0.00 0.00 0.00 22 1044.6
20210615164503 86 135 4.0 8.0 0.00 0.00 0.00 24 1044.3
20210615164005 86 120 4.0 9.0 0.00 0.00 0.00 24 1044.3
20210615163503 85 102 4.0 9.0 0.00 0.00 0.00 24 1044.5
20210615163005 85 95 4.0 10.0 0.00 0.00 0.00 24 1044.6
20210615162004 84 348 5.0 11.0 0.00 0.00 0.00 26 1044.4
20210615160504 84 169 3.0 8.0 0.00 0.00 0.00 25 1044.6
20210615160004 84 108 4.0 8.0 0.00 0.00 0.00 25 1044.6
20210615155007 85 35 3.0 8.0 0.00 0.00 0.00 25 1044.4
20210615153503 83 40 3.0 7.0 0.00 0.00 0.00 27 1044.5
20210615153004 83 38 3.0 6.0 0.00 0.00 0.00 28 1044.7
20210615151504 82 47 3.0 8.0 0.00 0.00 0.00 29 1044.7
20210615151004 81 34 3.0 8.0 0.00 0.00 0.00 32 1044.7
20210615150504 81 12 3.0 8.0 0.00 0.00 0.00 32 1044.7
20210615150005 81 8 3.0 8.0 0.00 0.00 0.00 32 1044.6
20210615144504 80 12 3.0 7.0 0.00 0.00 0.00 34 1044.7
20210615144004 79 16 4.0 8.0 0.00 0.00 0.00 36 1044.6
20210615143503 79 15 4.0 9.0 0.00 0.00 0.00 35 1044.5
20210615143004 80 12 3.0 9.0 0.00 0.00 0.00 34 1044.8
20210615142004 79 334 3.0 7.0 0.00 0.00 0.00 36 1044.7
20210615141005 77 1 3.0 6.0 0.00 0.00 0.00 35 1044.8
20210615134004 74 321 2.0 5.0 0.00 0.00 0.00 40 1044.8
20210615133004 74 327 2.0 6.0 0.00 0.00 0.00 40 1044.7
20210615132504 73 333 1.0 4.0 0.00 0.00 0.00 41 1044.7
20210615131503 71 286 2.0 4.0 0.00 0.00 0.00 44 1044.4
20210615131005 70 268 3.0 5.0 0.00 0.00 0.00 45 1044.6
20210615130504 69 267 4.0 7.0 0.00 0.00 0.00 45 1044.4
20210615130004 69 264 4.0 7.0 0.00 0.00 0.00 45 1044.3
20210615125004 68 246 4.0 7.0 0.00 0.00 0.00 45 1044.5
20210615124503 68 268 3.0 6.0 0.00 0.00 0.00 45 1044.5
20210615124004 68 270 3.0 5.0 0.00 0.00 0.00 48 1044.4
20210615123005 67 278 3.0 5.0 0.00 0.00 0.00 49 1044.4
20210615122503 67 270 3.0 5.0 0.00 0.00 0.00 49 1044.1
20210615122004 67 270 3.0 5.0 0.00 0.00 0.00 49 1044.0
20210615121504 66 270 2.0 4.0 0.00 0.00 0.00 49 1044.1
20210615120005 66 270 2.0 4.0 0.00 0.00 0.00 47 1043.8
20210615115503 67 270 2.0 4.0 0.00 0.00 0.00 47 1043.8
20210615115005 67 270 3.0 6.0 0.00 0.00 0.00 47 1044.1
20210615113004 69 273 4.0 8.0 0.00 0.00 0.00 44 1043.8
20210615111004 70 271 4.0 9.0 0.00 0.00 0.00 43 1043.6
20210615110504 69 260 3.0 8.0 0.00 0.00 0.00 44 1043.6
20210615105504 70 267 3.0 6.0 0.00 0.00 0.00 44 1043.7
20210615104504 70 259 2.0 4.0 0.00 0.00 0.00 43 1043.6
20210615103503 71 148 0.0 2.0 0.00 0.00 0.00 42 1043.4
20210615102004 72 237 1.0 4.0 0.00 0.00 0.00 41 1043.4
20210615101503 72 194 3.0 6.0 0.00 0.00 0.00 41 1043.4
20210615100004 73 187 5.0 8.0 0.00 0.00 0.00 40 1043.4
20210615095503 73 193 5.0 8.0 0.00 0.00 0.00 41 1043.4
20210615095005 72 202 6.0 9.0 0.00 0.00 0.00 40 1043.2
20210615094503 72 205 7.0 9.0 0.00 0.00 0.00 39 1043.3
20210615094004 72 205 7.0 10.0 0.00 0.00 0.00 39 1043.3
20210615093504 72 202 6.0 10.0 0.00 0.00 0.00 39 1043.4
20210615093004 72 205 6.0 8.0 0.00 0.00 0.00 37 1043.3
20210615092504 72 222 6.0 8.0 0.00 0.00 0.00 37 1043.2
20210615092004 72 225 6.0 8.0 0.00 0.00 0.00 36 1043.3
20210615091504 72 225 6.0 8.0 0.00 0.00 0.00 35 1043.3
20210615091004 72 225 6.0 8.0 0.00 0.00 0.00 35 1043.5
20210615090005 72 225 5.0 8.0 0.00 0.00 0.00 35 1043.0
20210615085504 73 225 6.0 8.0 0.00 0.00 0.00 35 1043.1
20210615085004 73 224 6.0 8.0 0.00 0.00 0.00 35 1043.0
20210615084504 73 223 5.0 8.0 0.00 0.00 0.00 34 1042.8
20210615084004 73 225 5.0 8.0 0.00 0.00 0.00 34 1043.0
20210615082503 75 198 4.0 6.0 0.00 0.00 0.00 35 1042.7
20210615081503 75 181 3.0 5.0 0.00 0.00 0.00 35 1042.6
20210615080004 75 161 4.0 7.0 0.00 0.00 0.00 34 1042.6
20210615075004 75 135 3.0 6.0 0.00 0.00 0.00 33 1042.5
20210615073004 77 135 4.0 8.0 0.00 0.00 0.00 28 1042.7
20210615072503 77 135 5.0 9.0 0.00 0.00 0.00 27 1042.4
20210615071504 78 135 5.0 10.0 0.00 0.00 0.00 26 1042.3
20210615071004 77 308 4.0 8.0 0.00 0.00 0.00 25 1042.4
20210615064004 80 70 5.0 8.0 0.00 0.00 0.00 25 1042.0
20210615063503 80 357 5.0 9.0 0.00 0.00 0.00 25 1042.2
20210615062504 79 346 3.0 6.0 0.00 0.00 0.00 25 1042.1
20210615061503 79 90 2.0 4.0 0.00 0.00 0.00 25 1042.2
20210615061004 79 90 2.0 3.0 0.00 0.00 0.00 21 1042.2
20210615060503 80 90 2.0 3.0 0.00 0.00 0.00 20 1041.8
20210615055504 80 90 1.0 3.0 0.00 0.00 0.00 18 1041.8
20210615055004 80 86 2.0 5.0 0.00 0.00 0.00 17 1042.1
20210615054005 80 90 2.0 4.0 0.00 0.00 0.00 17 1041.8
20210615053503 81 100 2.0 4.0 0.00 0.00 0.00 14 1041.7
20210615053004 81 107 2.0 4.0 0.00 0.00 0.00 16 1041.7
20210615052504 82 94 3.0 6.0 0.00 0.00 0.00 12 1041.8
20210615052004 82 90 4.0 8.0 0.00 0.00 0.00 12 1041.6
20210615051004 83 87 4.0 8.0 0.00 0.00 0.00 11 1041.5
20210615050004 83 92 6.0 11.0 0.00 0.00 0.00 11 1041.5
20210615043503 84 93 8.0 14.0 0.00 0.00 0.00 11 1040.9
20210615043004 84 92 7.0 12.0 0.00 0.00 0.00 11 1040.9
20210615042504 84 97 6.0 11.0 0.00 0.00 0.00 11 1040.8
20210615042004 84 101 7.0 12.0 0.00 0.00 0.00 11 1040.8
20210615041504 85 96 7.0 12.0 0.00 0.00 0.00 11 1040.9
20210615041004 85 90 5.0 11.0 0.00 0.00 0.00 11 1040.7
20210615040004 85 100 6.0 11.0 0.00 0.00 0.00 11 1040.7
20210615034503 86 125 6.0 13.0 0.00 0.00 0.00 11 1040.3
20210615034004 86 114 6.0 13.0 0.00 0.00 0.00 11 1040.1
20210615033504 86 82 8.0 15.0 0.00 0.00 0.00 11 1040.0
20210615033004 87 51 7.0 15.0 0.00 0.00 0.00 11 1040.0
20210615032503 86 59 7.0 14.0 0.00 0.00 0.00 11 1039.9
20210615032005 87 95 8.0 15.0 0.00 0.00 0.00 13 1039.8
20210615031004 87 94 9.0 18.0 0.00 0.00 0.00 13 1039.6
20210615030504 87 90 9.0 18.0 0.00 0.00 0.00 13 1039.3
20210615025004 88 78 10.0 18.0 0.00 0.00 0.00 13 1039.4
20210615024504 88 77 9.0 18.0 0.00 0.00 0.00 13 1039.1
20210615023503 89 78 5.0 10.0 0.00 0.00 0.00 12 1039.2
20210615023005 89 87 5.0 9.0 0.00 0.00 0.00 12 1039.2
20210615022504 89 90 4.0 9.0 0.00 0.00 0.00 12 1039.2
20210615021504 90 108 4.0 10.0 0.00 0.00 0.00 12 1039.1
20210615021004 90 94 3.0 9.0 0.00 0.00 0.00 12 1038.8
20210615020504 91 81 3.0 6.0 0.00 0.00 0.00 11 1038.9
20210615015504 92 158 3.0 6.0 0.00 0.00 0.00 11 1039.0
20210615015004 91 157 4.0 9.0 0.00 0.00 0.00 11 1038.7
20210615014503 91 154 5.0 11.0 0.00 0.00 0.00 11 1038.7